sensor_id;sensor_type;location;lat;lon;timestamp;P1;durP1;ratioP1;P2;durP2;ratioP2
59587;SDS011;45412;54.472;18.464;2023-03-16T00:00:48;13.10;;;3.10;;
59587;SDS011;45412;54.472;18.464;2023-03-16T00:03:35;14.80;;;3.20;;
59587;SDS011;45412;54.472;18.464;2023-03-16T00:06:21;11.90;;;3.70;;
59587;SDS011;45412;54.472;18.464;2023-03-16T00:09:11;9.60;;;3.30;;
59587;SDS011;45412;54.472;18.464;2023-03-16T00:12:01;13.80;;;3.20;;
59587;SDS011;45412;54.472;18.464;2023-03-16T00:14:48;12.20;;;3.50;;
59587;SDS011;45412;54.472;18.464;2023-03-16T00:17:35;12.50;;;3.50;;
59587;SDS011;45412;54.472;18.464;2023-03-16T00:20:22;8.70;;;3.10;;
59587;SDS011;45412;54.472;18.464;2023-03-16T00:23:08;12.70;;;4.10;;
59587;SDS011;45412;54.472;18.464;2023-03-16T00:25:57;11.70;;;3.60;;
59587;SDS011;45412;54.472;18.464;2023-03-16T00:28:44;13.70;;;3.80;;
59587;SDS011;45412;54.472;18.464;2023-03-16T00:31:31;13.20;;;4.10;;
59587;SDS011;45412;54.472;18.464;2023-03-16T00:34:18;12.00;;;3.70;;
59587;SDS011;45412;54.472;18.464;2023-03-16T00:37:05;15.20;;;5.00;;
59587;SDS011;45412;54.472;18.464;2023-03-16T00:39:52;12.90;;;3.60;;
59587;SDS011;45412;54.472;18.464;2023-03-16T00:42:41;11.00;;;4.00;;
59587;SDS011;45412;54.472;18.464;2023-03-16T00:45:27;12.10;;;3.50;;
59587;SDS011;45412;54.472;18.464;2023-03-16T00:48:14;11.80;;;3.90;;
59587;SDS011;45412;54.472;18.464;2023-03-16T00:51:02;14.70;;;4.30;;
59587;SDS011;45412;54.472;18.464;2023-03-16T00:53:51;13.20;;;4.00;;
59587;SDS011;45412;54.472;18.464;2023-03-16T00:56:38;10.80;;;3.70;;
59587;SDS011;45412;54.472;18.464;2023-03-16T00:59:24;11.60;;;3.40;;
59587;SDS011;45412;54.472;18.464;2023-03-16T01:02:11;10.80;;;3.10;;
59587;SDS011;45412;54.472;18.464;2023-03-16T01:05:01;10.80;;;3.30;;
59587;SDS011;45412;54.472;18.464;2023-03-16T01:07:47;12.50;;;3.70;;
59587;SDS011;45412;54.472;18.464;2023-03-16T01:10:35;12.50;;;3.50;;
59587;SDS011;45412;54.472;18.464;2023-03-16T01:13:22;10.30;;;3.20;;
59587;SDS011;45412;54.472;18.464;2023-03-16T01:16:09;12.00;;;3.40;;
59587;SDS011;45412;54.472;18.464;2023-03-16T01:18:56;12.60;;;4.70;;
59587;SDS011;45412;54.472;18.464;2023-03-16T01:21:42;14.90;;;4.30;;
59587;SDS011;45412;54.472;18.464;2023-03-16T01:24:29;13.00;;;4.90;;
59587;SDS011;45412;54.472;18.464;2023-03-16T01:27:16;11.80;;;4.20;;
59587;SDS011;45412;54.472;18.464;2023-03-16T01:30:03;13.50;;;4.30;;
59587;SDS011;45412;54.472;18.464;2023-03-16T01:32:51;11.00;;;3.90;;
59587;SDS011;45412;54.472;18.464;2023-03-16T01:35:37;9.20;;;3.20;;
59587;SDS011;45412;54.472;18.464;2023-03-16T01:38:24;10.10;;;3.50;;
59587;SDS011;45412;54.472;18.464;2023-03-16T01:41:11;12.00;;;3.80;;
59587;SDS011;45412;54.472;18.464;2023-03-16T01:43:59;8.30;;;2.70;;
59587;SDS011;45412;54.472;18.464;2023-03-16T01:46:46;10.00;;;3.30;;
59587;SDS011;45412;54.472;18.464;2023-03-16T01:49:35;11.30;;;3.50;;
59587;SDS011;45412;54.472;18.464;2023-03-16T01:52:29;12.60;;;3.60;;
59587;SDS011;45412;54.472;18.464;2023-03-16T01:55:18;10.50;;;3.10;;
59587;SDS011;45412;54.472;18.464;2023-03-16T01:58:04;10.50;;;3.00;;
59587;SDS011;45412;54.472;18.464;2023-03-16T02:00:51;10.00;;;2.80;;
59587;SDS011;45412;54.472;18.464;2023-03-16T02:03:40;11.60;;;3.70;;
59587;SDS011;45412;54.472;18.464;2023-03-16T02:06:35;13.10;;;3.80;;
59587;SDS011;45412;54.472;18.464;2023-03-16T02:09:23;8.50;;;2.50;;
59587;SDS011;45412;54.472;18.464;2023-03-16T02:12:12;9.00;;;3.20;;
59587;SDS011;45412;54.472;18.464;2023-03-16T02:15:05;9.80;;;3.10;;
59587;SDS011;45412;54.472;18.464;2023-03-16T02:17:52;11.70;;;3.40;;
59587;SDS011;45412;54.472;18.464;2023-03-16T02:23:44;10.20;;;3.10;;
59587;SDS011;45412;54.472;18.464;2023-03-16T02:26:44;10.40;;;3.50;;
59587;SDS011;45412;54.472;18.464;2023-03-16T02:29:59;9.40;;;2.70;;
59587;SDS011;45412;54.472;18.464;2023-03-16T02:32:56;10.10;;;2.60;;
59587;SDS011;45412;54.472;18.464;2023-03-16T02:35:43;10.50;;;3.30;;
59587;SDS011;45412;54.472;18.464;2023-03-16T02:38:30;10.70;;;3.60;;
59587;SDS011;45412;54.472;18.464;2023-03-16T02:41:18;9.70;;;2.80;;
59587;SDS011;45412;54.472;18.464;2023-03-16T02:44:15;8.40;;;3.00;;
59587;SDS011;45412;54.472;18.464;2023-03-16T02:47:36;9.90;;;3.20;;
59587;SDS011;45412;54.472;18.464;2023-03-16T02:50:26;10.30;;;3.40;;
59587;SDS011;45412;54.472;18.464;2023-03-16T02:53:14;10.20;;;3.50;;
59587;SDS011;45412;54.472;18.464;2023-03-16T02:56:02;10.90;;;3.20;;
59587;SDS011;45412;54.472;18.464;2023-03-16T02:58:50;11.20;;;3.20;;
59587;SDS011;45412;54.472;18.464;2023-03-16T03:01:37;10.90;;;3.00;;
59587;SDS011;45412;54.472;18.464;2023-03-16T03:04:23;10.70;;;3.20;;
59587;SDS011;45412;54.472;18.464;2023-03-16T03:07:11;11.90;;;3.80;;
59587;SDS011;45412;54.472;18.464;2023-03-16T03:10:27;11.20;;;3.10;;
59587;SDS011;45412;54.472;18.464;2023-03-16T03:13:16;10.80;;;4.10;;
59587;SDS011;45412;54.472;18.464;2023-03-16T03:16:03;9.70;;;3.50;;
59587;SDS011;45412;54.472;18.464;2023-03-16T03:18:50;13.30;;;3.60;;
59587;SDS011;45412;54.472;18.464;2023-03-16T03:21:39;11.70;;;3.40;;
59587;SDS011;45412;54.472;18.464;2023-03-16T03:24:26;11.10;;;3.30;;
59587;SDS011;45412;54.472;18.464;2023-03-16T03:27:13;9.70;;;3.20;;
59587;SDS011;45412;54.472;18.464;2023-03-16T03:30:00;11.30;;;4.10;;
59587;SDS011;45412;54.472;18.464;2023-03-16T03:32:47;12.40;;;4.20;;
59587;SDS011;45412;54.472;18.464;2023-03-16T03:35:35;13.10;;;4.00;;
59587;SDS011;45412;54.472;18.464;2023-03-16T03:38:23;12.80;;;3.90;;
59587;SDS011;45412;54.472;18.464;2023-03-16T03:41:11;10.80;;;3.50;;
59587;SDS011;45412;54.472;18.464;2023-03-16T03:43:59;12.60;;;4.00;;
59587;SDS011;45412;54.472;18.464;2023-03-16T03:46:46;10.90;;;3.90;;
59587;SDS011;45412;54.472;18.464;2023-03-16T03:49:33;12.10;;;3.60;;
59587;SDS011;45412;54.472;18.464;2023-03-16T03:52:19;10.70;;;3.70;;
59587;SDS011;45412;54.472;18.464;2023-03-16T03:55:07;15.50;;;4.50;;
59587;SDS011;45412;54.472;18.464;2023-03-16T03:57:54;14.90;;;4.00;;
59587;SDS011;45412;54.472;18.464;2023-03-16T04:00:40;13.80;;;5.30;;
59587;SDS011;45412;54.472;18.464;2023-03-16T04:03:27;14.30;;;4.50;;
59587;SDS011;45412;54.472;18.464;2023-03-16T04:06:13;13.10;;;3.40;;
59587;SDS011;45412;54.472;18.464;2023-03-16T04:09:00;10.80;;;3.60;;
59587;SDS011;45412;54.472;18.464;2023-03-16T04:11:48;13.40;;;4.80;;
59587;SDS011;45412;54.472;18.464;2023-03-16T04:14:35;14.40;;;4.50;;
59587;SDS011;45412;54.472;18.464;2023-03-16T04:17:23;14.20;;;3.80;;
59587;SDS011;45412;54.472;18.464;2023-03-16T04:20:11;13.70;;;3.70;;
59587;SDS011;45412;54.472;18.464;2023-03-16T04:23:04;12.80;;;3.60;;
59587;SDS011;45412;54.472;18.464;2023-03-16T04:25:52;12.90;;;4.20;;
59587;SDS011;45412;54.472;18.464;2023-03-16T04:28:40;10.20;;;4.10;;
59587;SDS011;45412;54.472;18.464;2023-03-16T04:31:28;9.50;;;3.80;;
59587;SDS011;45412;54.472;18.464;2023-03-16T04:34:15;13.00;;;3.90;;
59587;SDS011;45412;54.472;18.464;2023-03-16T04:37:03;15.10;;;4.40;;
59587;SDS011;45412;54.472;18.464;2023-03-16T04:39:51;13.30;;;4.50;;
59587;SDS011;45412;54.472;18.464;2023-03-16T04:42:38;11.70;;;4.60;;
59587;SDS011;45412;54.472;18.464;2023-03-16T04:45:25;12.10;;;3.80;;
59587;SDS011;45412;54.472;18.464;2023-03-16T04:48:12;14.50;;;5.20;;
59587;SDS011;45412;54.472;18.464;2023-03-16T04:50:58;15.80;;;4.50;;
59587;SDS011;45412;54.472;18.464;2023-03-16T04:53:47;12.70;;;4.10;;
59587;SDS011;45412;54.472;18.464;2023-03-16T04:56:40;13.60;;;4.50;;
59587;SDS011;45412;54.472;18.464;2023-03-16T04:59:31;11.80;;;4.20;;
59587;SDS011;45412;54.472;18.464;2023-03-16T05:02:37;12.10;;;3.60;;
59587;SDS011;45412;54.472;18.464;2023-03-16T05:05:24;10.50;;;3.50;;
59587;SDS011;45412;54.472;18.464;2023-03-16T05:08:10;13.80;;;4.40;;
59587;SDS011;45412;54.472;18.464;2023-03-16T05:10:58;13.80;;;4.50;;
59587;SDS011;45412;54.472;18.464;2023-03-16T05:13:47;9.10;;;3.40;;
59587;SDS011;45412;54.472;18.464;2023-03-16T05:16:33;12.20;;;4.10;;
59587;SDS011;45412;54.472;18.464;2023-03-16T05:19:20;13.10;;;4.40;;
59587;SDS011;45412;54.472;18.464;2023-03-16T05:22:07;11.10;;;4.10;;
59587;SDS011;45412;54.472;18.464;2023-03-16T05:24:55;17.80;;;5.40;;
59587;SDS011;45412;54.472;18.464;2023-03-16T05:27:50;15.50;;;5.10;;
59587;SDS011;45412;54.472;18.464;2023-03-16T05:30:47;15.00;;;4.90;;
59587;SDS011;45412;54.472;18.464;2023-03-16T05:33:37;15.70;;;5.70;;
59587;SDS011;45412;54.472;18.464;2023-03-16T05:36:27;13.90;;;5.50;;
59587;SDS011;45412;54.472;18.464;2023-03-16T05:39:19;18.30;;;6.20;;
59587;SDS011;45412;54.472;18.464;2023-03-16T05:42:06;16.50;;;6.20;;
59587;SDS011;45412;54.472;18.464;2023-03-16T05:45:15;16.60;;;5.40;;
59587;SDS011;45412;54.472;18.464;2023-03-16T05:48:18;20.80;;;5.80;;
59587;SDS011;45412;54.472;18.464;2023-03-16T05:51:09;16.00;;;6.00;;
59587;SDS011;45412;54.472;18.464;2023-03-16T05:53:56;19.90;;;6.80;;
59587;SDS011;45412;54.472;18.464;2023-03-16T05:56:49;18.40;;;6.80;;
59587;SDS011;45412;54.472;18.464;2023-03-16T05:59:36;13.10;;;5.70;;
59587;SDS011;45412;54.472;18.464;2023-03-16T06:02:23;13.60;;;5.40;;
59587;SDS011;45412;54.472;18.464;2023-03-16T06:05:13;14.60;;;5.20;;
59587;SDS011;45412;54.472;18.464;2023-03-16T06:08:00;13.80;;;5.00;;
59587;SDS011;45412;54.472;18.464;2023-03-16T06:10:48;13.20;;;5.50;;
59587;SDS011;45412;54.472;18.464;2023-03-16T06:13:35;15.10;;;5.40;;
59587;SDS011;45412;54.472;18.464;2023-03-16T06:16:23;12.20;;;4.70;;
59587;SDS011;45412;54.472;18.464;2023-03-16T06:19:10;11.40;;;3.90;;
59587;SDS011;45412;54.472;18.464;2023-03-16T06:21:57;12.10;;;4.20;;
59587;SDS011;45412;54.472;18.464;2023-03-16T06:24:44;14.90;;;4.30;;
59587;SDS011;45412;54.472;18.464;2023-03-16T06:27:31;14.80;;;4.30;;
59587;SDS011;45412;54.472;18.464;2023-03-16T06:30:39;11.10;;;3.50;;
59587;SDS011;45412;54.472;18.464;2023-03-16T06:33:26;13.60;;;4.00;;
59587;SDS011;45412;54.472;18.464;2023-03-16T06:36:13;12.40;;;3.30;;
59587;SDS011;45412;54.472;18.464;2023-03-16T06:39:05;10.00;;;3.70;;
59587;SDS011;45412;54.472;18.464;2023-03-16T06:42:04;18.40;;;4.10;;
59587;SDS011;45412;54.472;18.464;2023-03-16T06:44:51;11.00;;;3.50;;
59587;SDS011;45412;54.472;18.464;2023-03-16T06:47:38;12.20;;;3.40;;
59587;SDS011;45412;54.472;18.464;2023-03-16T06:50:25;13.60;;;3.70;;
59587;SDS011;45412;54.472;18.464;2023-03-16T06:53:13;14.00;;;3.60;;
59587;SDS011;45412;54.472;18.464;2023-03-16T06:55:59;13.60;;;3.70;;
59587;SDS011;45412;54.472;18.464;2023-03-16T06:58:47;12.50;;;4.00;;
59587;SDS011;45412;54.472;18.464;2023-03-16T07:01:34;12.20;;;3.60;;
59587;SDS011;45412;54.472;18.464;2023-03-16T07:04:21;9.90;;;3.30;;
59587;SDS011;45412;54.472;18.464;2023-03-16T07:07:08;11.00;;;3.70;;
59587;SDS011;45412;54.472;18.464;2023-03-16T07:09:55;12.20;;;3.60;;
59587;SDS011;45412;54.472;18.464;2023-03-16T07:12:42;12.60;;;3.90;;
59587;SDS011;45412;54.472;18.464;2023-03-16T07:15:29;11.00;;;3.20;;
59587;SDS011;45412;54.472;18.464;2023-03-16T07:18:17;11.40;;;3.50;;
59587;SDS011;45412;54.472;18.464;2023-03-16T07:21:05;13.70;;;4.20;;
59587;SDS011;45412;54.472;18.464;2023-03-16T07:24:10;14.00;;;3.40;;
59587;SDS011;45412;54.472;18.464;2023-03-16T07:26:59;12.50;;;3.30;;
59587;SDS011;45412;54.472;18.464;2023-03-16T07:29:49;13.70;;;4.50;;
59587;SDS011;45412;54.472;18.464;2023-03-16T07:32:40;11.60;;;3.80;;
59587;SDS011;45412;54.472;18.464;2023-03-16T07:35:28;12.70;;;4.40;;
59587;SDS011;45412;54.472;18.464;2023-03-16T07:38:15;9.80;;;3.40;;
59587;SDS011;45412;54.472;18.464;2023-03-16T07:41:20;11.60;;;3.60;;
59587;SDS011;45412;54.472;18.464;2023-03-16T07:44:07;9.10;;;3.20;;
59587;SDS011;45412;54.472;18.464;2023-03-16T07:46:53;12.20;;;3.80;;
59587;SDS011;45412;54.472;18.464;2023-03-16T07:49:42;10.60;;;3.80;;
59587;SDS011;45412;54.472;18.464;2023-03-16T07:52:29;8.90;;;3.10;;
59587;SDS011;45412;54.472;18.464;2023-03-16T07:55:16;10.80;;;3.30;;
59587;SDS011;45412;54.472;18.464;2023-03-16T07:58:03;9.80;;;3.70;;
59587;SDS011;45412;54.472;18.464;2023-03-16T08:00:55;10.20;;;3.50;;
59587;SDS011;45412;54.472;18.464;2023-03-16T08:03:43;13.80;;;4.00;;
59587;SDS011;45412;54.472;18.464;2023-03-16T08:06:30;9.70;;;3.40;;
59587;SDS011;45412;54.472;18.464;2023-03-16T08:09:17;9.00;;;3.40;;
59587;SDS011;45412;54.472;18.464;2023-03-16T08:12:04;10.70;;;3.60;;
59587;SDS011;45412;54.472;18.464;2023-03-16T08:14:52;11.00;;;4.00;;
59587;SDS011;45412;54.472;18.464;2023-03-16T08:17:44;11.10;;;3.50;;
59587;SDS011;45412;54.472;18.464;2023-03-16T08:20:35;9.10;;;3.00;;
59587;SDS011;45412;54.472;18.464;2023-03-16T08:23:23;11.90;;;3.40;;
59587;SDS011;45412;54.472;18.464;2023-03-16T08:26:11;9.40;;;3.50;;
59587;SDS011;45412;54.472;18.464;2023-03-16T08:28:58;9.00;;;3.10;;
59587;SDS011;45412;54.472;18.464;2023-03-16T08:31:48;9.70;;;3.20;;
59587;SDS011;45412;54.472;18.464;2023-03-16T08:34:44;10.00;;;3.20;;
59587;SDS011;45412;54.472;18.464;2023-03-16T08:37:31;10.70;;;3.40;;
59587;SDS011;45412;54.472;18.464;2023-03-16T08:40:18;9.50;;;3.30;;
59587;SDS011;45412;54.472;18.464;2023-03-16T08:43:08;12.40;;;3.80;;
59587;SDS011;45412;54.472;18.464;2023-03-16T08:45:54;11.50;;;3.70;;
59587;SDS011;45412;54.472;18.464;2023-03-16T08:48:42;9.60;;;3.50;;
59587;SDS011;45412;54.472;18.464;2023-03-16T08:51:29;9.30;;;3.40;;
59587;SDS011;45412;54.472;18.464;2023-03-16T08:54:15;9.20;;;3.40;;
59587;SDS011;45412;54.472;18.464;2023-03-16T08:57:02;9.90;;;3.20;;
59587;SDS011;45412;54.472;18.464;2023-03-16T08:59:49;9.00;;;2.60;;
59587;SDS011;45412;54.472;18.464;2023-03-16T09:02:36;7.60;;;2.70;;
59587;SDS011;45412;54.472;18.464;2023-03-16T09:05:24;8.70;;;2.60;;
59587;SDS011;45412;54.472;18.464;2023-03-16T09:08:10;7.80;;;2.60;;
59587;SDS011;45412;54.472;18.464;2023-03-16T09:11:01;8.10;;;3.20;;
59587;SDS011;45412;54.472;18.464;2023-03-16T09:13:50;8.90;;;3.00;;
59587;SDS011;45412;54.472;18.464;2023-03-16T09:16:38;8.10;;;2.70;;
59587;SDS011;45412;54.472;18.464;2023-03-16T09:19:25;9.80;;;3.10;;
59587;SDS011;45412;54.472;18.464;2023-03-16T09:22:12;8.50;;;2.80;;
59587;SDS011;45412;54.472;18.464;2023-03-16T09:24:59;11.40;;;2.90;;
59587;SDS011;45412;54.472;18.464;2023-03-16T09:27:45;8.60;;;3.50;;
59587;SDS011;45412;54.472;18.464;2023-03-16T09:30:32;10.00;;;2.90;;
59587;SDS011;45412;54.472;18.464;2023-03-16T09:33:20;12.10;;;3.20;;
59587;SDS011;45412;54.472;18.464;2023-03-16T09:36:08;8.50;;;3.10;;
59587;SDS011;45412;54.472;18.464;2023-03-16T09:38:56;9.10;;;3.10;;
59587;SDS011;45412;54.472;18.464;2023-03-16T09:45:34;11.10;;;3.20;;
59587;SDS011;45412;54.472;18.464;2023-03-16T09:48:26;11.20;;;3.60;;
59587;SDS011;45412;54.472;18.464;2023-03-16T09:54:37;8.80;;;3.30;;
59587;SDS011;45412;54.472;18.464;2023-03-16T09:57:36;8.20;;;2.70;;
59587;SDS011;45412;54.472;18.464;2023-03-16T10:00:28;10.40;;;3.10;;
59587;SDS011;45412;54.472;18.464;2023-03-16T10:04:10;8.60;;;2.80;;
59587;SDS011;45412;54.472;18.464;2023-03-16T10:06:42;9.90;;;3.40;;
59587;SDS011;45412;54.472;18.464;2023-03-16T10:09:56;12.40;;;4.00;;
59587;SDS011;45412;54.472;18.464;2023-03-16T10:12:49;10.90;;;3.40;;
59587;SDS011;45412;54.472;18.464;2023-03-16T10:15:38;8.00;;;3.20;;
59587;SDS011;45412;54.472;18.464;2023-03-16T10:18:31;9.40;;;3.60;;
59587;SDS011;45412;54.472;18.464;2023-03-16T10:21:23;7.80;;;2.90;;
59587;SDS011;45412;54.472;18.464;2023-03-16T10:24:55;10.60;;;3.40;;
59587;SDS011;45412;54.472;18.464;2023-03-16T10:27:52;8.20;;;2.40;;
59587;SDS011;45412;54.472;18.464;2023-03-16T10:30:39;7.70;;;2.30;;
59587;SDS011;45412;54.472;18.464;2023-03-16T10:33:30;8.20;;;2.10;;
59587;SDS011;45412;54.472;18.464;2023-03-16T10:39:19;8.90;;;3.00;;
59587;SDS011;45412;54.472;18.464;2023-03-16T10:42:13;9.90;;;2.90;;
59587;SDS011;45412;54.472;18.464;2023-03-16T10:45:05;8.50;;;2.90;;
59587;SDS011;45412;54.472;18.464;2023-03-16T10:48:16;17.60;;;4.80;;
59587;SDS011;45412;54.472;18.464;2023-03-16T10:51:11;12.30;;;3.20;;
59587;SDS011;45412;54.472;18.464;2023-03-16T10:54:07;10.30;;;2.90;;
59587;SDS011;45412;54.472;18.464;2023-03-16T11:00:19;7.70;;;2.30;;
59587;SDS011;45412;54.472;18.464;2023-03-16T11:03:21;9.10;;;2.40;;
59587;SDS011;45412;54.472;18.464;2023-03-16T11:06:22;8.70;;;2.20;;
59587;SDS011;45412;54.472;18.464;2023-03-16T11:09:13;6.70;;;2.00;;
59587;SDS011;45412;54.472;18.464;2023-03-16T11:12:24;6.90;;;2.00;;
59587;SDS011;45412;54.472;18.464;2023-03-16T11:15:15;6.70;;;1.80;;
59587;SDS011;45412;54.472;18.464;2023-03-16T11:18:23;7.50;;;1.80;;
59587;SDS011;45412;54.472;18.464;2023-03-16T11:33:53;8.80;;;2.20;;
59587;SDS011;45412;54.472;18.464;2023-03-16T11:36:55;7.40;;;2.20;;
59587;SDS011;45412;54.472;18.464;2023-03-16T11:39:49;8.10;;;3.20;;
59587;SDS011;45412;54.472;18.464;2023-03-16T11:50:42;8.50;;;2.80;;
59587;SDS011;45412;54.472;18.464;2023-03-16T11:58:16;6.10;;;1.90;;
59587;SDS011;45412;54.472;18.464;2023-03-16T12:01:19;6.60;;;2.00;;
59587;SDS011;45412;54.472;18.464;2023-03-16T12:10:58;6.60;;;1.80;;
59587;SDS011;45412;54.472;18.464;2023-03-16T12:20:21;6.40;;;1.50;;
59587;SDS011;45412;54.472;18.464;2023-03-16T12:23:13;6.90;;;1.60;;
59587;SDS011;45412;54.472;18.464;2023-03-16T12:26:13;6.00;;;1.70;;
59587;SDS011;45412;54.472;18.464;2023-03-16T12:29:05;6.40;;;1.70;;
59587;SDS011;45412;54.472;18.464;2023-03-16T12:45:16;7.80;;;2.70;;
59587;SDS011;45412;54.472;18.464;2023-03-16T12:48:13;9.20;;;2.40;;
59587;SDS011;45412;54.472;18.464;2023-03-16T12:51:06;7.90;;;2.00;;
59587;SDS011;45412;54.472;18.464;2023-03-16T12:53:53;8.60;;;1.90;;
59587;SDS011;45412;54.472;18.464;2023-03-16T12:56:44;7.30;;;2.20;;
59587;SDS011;45412;54.472;18.464;2023-03-16T12:59:43;7.10;;;2.00;;
59587;SDS011;45412;54.472;18.464;2023-03-16T13:02:44;7.70;;;2.00;;
59587;SDS011;45412;54.472;18.464;2023-03-16T13:05:44;5.90;;;1.60;;
59587;SDS011;45412;54.472;18.464;2023-03-16T13:08:40;7.60;;;1.60;;
59587;SDS011;45412;54.472;18.464;2023-03-16T13:11:42;7.50;;;1.70;;
59587;SDS011;45412;54.472;18.464;2023-03-16T13:14:38;6.80;;;1.70;;
59587;SDS011;45412;54.472;18.464;2023-03-16T13:17:31;6.80;;;1.50;;
59587;SDS011;45412;54.472;18.464;2023-03-16T13:20:29;6.30;;;1.60;;
59587;SDS011;45412;54.472;18.464;2023-03-16T13:32:15;8.50;;;1.90;;
59587;SDS011;45412;54.472;18.464;2023-03-16T13:35:06;7.80;;;1.90;;
59587;SDS011;45412;54.472;18.464;2023-03-16T13:38:05;10.00;;;3.40;;
59587;SDS011;45412;54.472;18.464;2023-03-16T13:41:17;10.90;;;3.00;;
59587;SDS011;45412;54.472;18.464;2023-03-16T13:44:03;7.90;;;2.60;;
59587;SDS011;45412;54.472;18.464;2023-03-16T13:46:50;10.40;;;2.40;;
59587;SDS011;45412;54.472;18.464;2023-03-16T13:52:35;9.00;;;2.50;;
59587;SDS011;45412;54.472;18.464;2023-03-16T13:55:31;8.10;;;2.20;;
59587;SDS011;45412;54.472;18.464;2023-03-16T13:58:32;7.90;;;1.90;;
59587;SDS011;45412;54.472;18.464;2023-03-16T14:01:24;6.90;;;2.40;;
59587;SDS011;45412;54.472;18.464;2023-03-16T14:04:14;8.20;;;2.20;;
59587;SDS011;45412;54.472;18.464;2023-03-16T14:07:17;9.40;;;2.60;;
59587;SDS011;45412;54.472;18.464;2023-03-16T14:10:08;9.00;;;2.10;;
59587;SDS011;45412;54.472;18.464;2023-03-16T14:16:18;9.60;;;2.50;;
59587;SDS011;45412;54.472;18.464;2023-03-16T14:19:17;8.00;;;2.00;;
59587;SDS011;45412;54.472;18.464;2023-03-16T14:22:14;10.50;;;2.90;;
59587;SDS011;45412;54.472;18.464;2023-03-16T14:25:18;11.30;;;2.50;;
59587;SDS011;45412;54.472;18.464;2023-03-16T14:28:12;8.10;;;2.00;;
59587;SDS011;45412;54.472;18.464;2023-03-16T14:31:05;10.40;;;1.90;;
59587;SDS011;45412;54.472;18.464;2023-03-16T14:34:00;7.40;;;1.50;;
59587;SDS011;45412;54.472;18.464;2023-03-16T14:37:04;9.10;;;1.90;;
59587;SDS011;45412;54.472;18.464;2023-03-16T14:40:00;8.00;;;2.00;;
59587;SDS011;45412;54.472;18.464;2023-03-16T14:42:55;9.80;;;2.10;;
59587;SDS011;45412;54.472;18.464;2023-03-16T14:45:45;8.40;;;2.00;;
59587;SDS011;45412;54.472;18.464;2023-03-16T14:48:31;10.00;;;2.10;;
59587;SDS011;45412;54.472;18.464;2023-03-16T14:51:18;9.10;;;2.10;;
59587;SDS011;45412;54.472;18.464;2023-03-16T14:54:11;8.10;;;2.00;;
59587;SDS011;45412;54.472;18.464;2023-03-16T14:57:01;7.20;;;2.00;;
59587;SDS011;45412;54.472;18.464;2023-03-16T14:59:53;8.10;;;1.90;;
59587;SDS011;45412;54.472;18.464;2023-03-16T15:02:46;7.50;;;1.70;;
59587;SDS011;45412;54.472;18.464;2023-03-16T15:05:42;8.20;;;1.60;;
59587;SDS011;45412;54.472;18.464;2023-03-16T15:08:33;7.90;;;1.90;;
59587;SDS011;45412;54.472;18.464;2023-03-16T15:11:27;8.70;;;2.30;;
59587;SDS011;45412;54.472;18.464;2023-03-16T15:14:14;8.70;;;2.30;;
59587;SDS011;45412;54.472;18.464;2023-03-16T15:17:20;8.30;;;2.40;;
59587;SDS011;45412;54.472;18.464;2023-03-16T15:20:11;8.40;;;1.80;;
59587;SDS011;45412;54.472;18.464;2023-03-16T15:23:00;8.00;;;2.00;;
59587;SDS011;45412;54.472;18.464;2023-03-16T15:25:50;7.90;;;1.40;;
59587;SDS011;45412;54.472;18.464;2023-03-16T15:28:42;5.80;;;1.70;;
59587;SDS011;45412;54.472;18.464;2023-03-16T15:31:28;6.70;;;1.70;;
59587;SDS011;45412;54.472;18.464;2023-03-16T15:34:15;6.20;;;1.70;;
59587;SDS011;45412;54.472;18.464;2023-03-16T15:37:02;9.40;;;2.90;;
59587;SDS011;45412;54.472;18.464;2023-03-16T15:39:49;13.60;;;4.30;;
59587;SDS011;45412;54.472;18.464;2023-03-16T15:42:36;13.10;;;4.20;;
59587;SDS011;45412;54.472;18.464;2023-03-16T15:45:23;10.80;;;2.90;;
59587;SDS011;45412;54.472;18.464;2023-03-16T15:48:12;13.90;;;4.10;;
59587;SDS011;45412;54.472;18.464;2023-03-16T15:51:01;9.40;;;3.40;;
59587;SDS011;45412;54.472;18.464;2023-03-16T15:54:05;9.20;;;3.10;;
59587;SDS011;45412;54.472;18.464;2023-03-16T15:56:54;10.00;;;3.50;;
59587;SDS011;45412;54.472;18.464;2023-03-16T15:59:40;10.90;;;3.20;;
59587;SDS011;45412;54.472;18.464;2023-03-16T16:02:28;11.20;;;3.70;;
59587;SDS011;45412;54.472;18.464;2023-03-16T16:05:16;9.60;;;3.20;;
59587;SDS011;45412;54.472;18.464;2023-03-16T16:08:02;9.70;;;2.80;;
59587;SDS011;45412;54.472;18.464;2023-03-16T16:10:49;10.10;;;3.00;;
59587;SDS011;45412;54.472;18.464;2023-03-16T16:13:38;10.60;;;2.70;;
59587;SDS011;45412;54.472;18.464;2023-03-16T16:16:31;11.10;;;3.10;;
59587;SDS011;45412;54.472;18.464;2023-03-16T16:19:19;10.00;;;3.20;;
59587;SDS011;45412;54.472;18.464;2023-03-16T16:22:12;8.80;;;3.00;;
59587;SDS011;45412;54.472;18.464;2023-03-16T16:24:58;9.70;;;2.70;;
59587;SDS011;45412;54.472;18.464;2023-03-16T16:27:45;10.40;;;3.10;;
59587;SDS011;45412;54.472;18.464;2023-03-16T16:30:32;8.50;;;2.90;;
59587;SDS011;45412;54.472;18.464;2023-03-16T16:36:16;14.80;;;5.00;;
59587;SDS011;45412;54.472;18.464;2023-03-16T16:39:05;13.80;;;4.60;;
59587;SDS011;45412;54.472;18.464;2023-03-16T16:41:52;12.10;;;3.80;;
59587;SDS011;45412;54.472;18.464;2023-03-16T16:44:41;11.40;;;3.90;;
59587;SDS011;45412;54.472;18.464;2023-03-16T16:47:28;8.90;;;3.40;;
59587;SDS011;45412;54.472;18.464;2023-03-16T16:53:13;13.80;;;3.50;;
59587;SDS011;45412;54.472;18.464;2023-03-16T16:56:11;10.20;;;3.30;;
59587;SDS011;45412;54.472;18.464;2023-03-16T16:59:12;13.90;;;4.30;;
59587;SDS011;45412;54.472;18.464;2023-03-16T17:02:00;12.70;;;4.20;;
59587;SDS011;45412;54.472;18.464;2023-03-16T17:04:58;14.20;;;4.50;;
59587;SDS011;45412;54.472;18.464;2023-03-16T17:07:44;12.10;;;3.80;;
59587;SDS011;45412;54.472;18.464;2023-03-16T17:10:30;17.20;;;4.50;;
59587;SDS011;45412;54.472;18.464;2023-03-16T17:16:20;25.30;;;7.80;;
59587;SDS011;45412;54.472;18.464;2023-03-16T17:19:21;27.40;;;8.10;;
59587;SDS011;45412;54.472;18.464;2023-03-16T17:22:18;30.90;;;8.00;;
59587;SDS011;45412;54.472;18.464;2023-03-16T17:25:10;26.10;;;8.50;;
59587;SDS011;45412;54.472;18.464;2023-03-16T17:27:56;25.40;;;8.60;;
59587;SDS011;45412;54.472;18.464;2023-03-16T17:30:44;24.20;;;7.50;;
59587;SDS011;45412;54.472;18.464;2023-03-16T17:33:33;23.10;;;6.90;;
59587;SDS011;45412;54.472;18.464;2023-03-16T17:36:20;35.60;;;8.50;;
59587;SDS011;45412;54.472;18.464;2023-03-16T17:39:21;30.70;;;9.00;;
59587;SDS011;45412;54.472;18.464;2023-03-16T17:42:15;24.10;;;6.00;;
59587;SDS011;45412;54.472;18.464;2023-03-16T17:45:04;14.80;;;5.10;;
59587;SDS011;45412;54.472;18.464;2023-03-16T17:48:00;16.60;;;5.80;;
59587;SDS011;45412;54.472;18.464;2023-03-16T17:50:47;19.40;;;7.30;;
59587;SDS011;45412;54.472;18.464;2023-03-16T17:53:34;19.40;;;7.80;;
59587;SDS011;45412;54.472;18.464;2023-03-16T17:56:23;24.50;;;9.10;;
59587;SDS011;45412;54.472;18.464;2023-03-16T17:59:16;25.30;;;9.90;;
59587;SDS011;45412;54.472;18.464;2023-03-16T18:02:42;22.60;;;9.20;;
59587;SDS011;45412;54.472;18.464;2023-03-16T18:05:36;27.30;;;9.60;;
59587;SDS011;45412;54.472;18.464;2023-03-16T18:08:25;26.70;;;10.70;;
59587;SDS011;45412;54.472;18.464;2023-03-16T18:11:44;32.90;;;13.50;;
59587;SDS011;45412;54.472;18.464;2023-03-16T18:14:35;44.00;;;19.50;;
59587;SDS011;45412;54.472;18.464;2023-03-16T18:17:29;44.50;;;20.40;;